createdAt,value
2022-09-12T00:01:33.286Z,100453.03
2022-09-12T00:04:02.801Z,100444.56
2022-09-12T00:06:37.069Z,100443.31
2022-09-12T00:09:14.338Z,100442.88
2022-09-12T00:11:45.458Z,100444.50
2022-09-12T00:14:17.836Z,100448.75
2022-09-12T00:16:46.528Z,100447.06
2022-09-12T00:19:15.513Z,100444.34
2022-09-12T00:21:43.940Z,100445.75
2022-09-12T00:24:12.556Z,100442.44
2022-09-12T00:26:41.017Z,100437.09
2022-09-12T00:29:09.796Z,100439.78
2022-09-12T00:31:38.425Z,100437.50
2022-09-12T00:34:06.805Z,100446.81
2022-09-12T00:36:35.215Z,100447.25
2022-09-12T00:39:03.980Z,100441.72
2022-09-12T00:41:36.435Z,100437.59
2022-09-12T00:44:13.632Z,100434.16
2022-09-12T00:47:07.710Z,100437.47
2022-09-12T00:50:12.040Z,100431.25
2022-09-12T00:52:53.614Z,100421.75
2022-09-12T00:55:26.585Z,100435.16
2022-09-12T00:58:00.591Z,100426.91
2022-09-12T01:00:29.949Z,100422.78
2022-09-12T01:03:03.756Z,100423.00
2022-09-12T01:05:35.656Z,100424.41
2022-09-12T01:08:07.816Z,100416.31
2022-09-12T01:10:41.537Z,100418.38
2022-09-12T01:13:11.394Z,100407.22
2022-09-12T01:15:40.881Z,100418.72
2022-09-12T01:18:37.341Z,100416.03
2022-09-12T01:21:21.212Z,100420.78
2022-09-12T01:24:10.462Z,100422.47
2022-09-12T01:27:14.557Z,100417.88
2022-09-12T01:29:57.705Z,100417.44
2022-09-12T01:32:44.641Z,100422.81
2022-09-12T01:35:45.342Z,100411.47
2022-09-12T01:38:36.331Z,100410.06
2022-09-12T01:41:12.777Z,100415.44
2022-09-12T01:43:51.218Z,100416.44
2022-09-12T01:46:30.336Z,100417.28
2022-09-12T01:49:24.878Z,100419.78
2022-09-12T01:52:08.951Z,100415.25
2022-09-12T01:54:48.369Z,100415.88
2022-09-12T01:57:30.873Z,100409.66
2022-09-12T02:00:08.854Z,100412.16
2022-09-12T02:03:03.013Z,100410.31
2022-09-12T02:05:38.006Z,100410.28
2022-09-12T02:08:19.153Z,100412.13
2022-09-12T02:10:56.300Z,100416.22
2022-09-12T02:13:38.363Z,100412.25
2022-09-12T02:16:38.469Z,100417.63
2022-09-12T02:19:18.043Z,100409.56
2022-09-12T02:22:00.046Z,100413.47
2022-09-12T02:24:41.868Z,100412.03
2022-09-12T02:27:25.238Z,100408.69
2022-09-12T02:29:53.843Z,100406.78
2022-09-12T02:32:45.306Z,100399.78
2022-09-12T02:35:36.050Z,100401.44
2022-09-12T02:38:04.384Z,100399.09
2022-09-12T02:40:33.084Z,100390.44
2022-09-12T02:43:02.477Z,100401.16
2022-09-12T02:45:32.242Z,100393.53
2022-09-12T02:48:08.402Z,100392.25
2022-09-12T02:50:37.527Z,100389.28
2022-09-12T02:53:07.170Z,100386.19
2022-09-12T02:55:38.122Z,100388.38
2022-09-12T02:58:11.143Z,100394.50
2022-09-12T03:01:34.701Z,100392.38
2022-09-12T03:04:30.042Z,100388.44
2022-09-12T03:07:37.645Z,100390.09
2022-09-12T03:10:36.784Z,100392.31
2022-09-12T03:13:38.911Z,100386.97
2022-09-12T03:16:56.794Z,100385.69
2022-09-12T03:20:11.273Z,100396.31
2022-09-12T03:23:05.720Z,100392.75
2022-09-12T03:25:37.611Z,100395.81
2022-09-12T03:28:16.974Z,100387.53
2022-09-12T03:30:48.285Z,100387.06
2022-09-12T03:33:19.528Z,100381.72
2022-09-12T03:35:48.821Z,100384.78
2022-09-12T03:38:17.586Z,100381.47
2022-09-12T03:40:47.836Z,100381.66
2022-09-12T03:43:19.449Z,100385.78
2022-09-12T03:45:53.432Z,100380.66
2022-09-12T03:48:22.023Z,100388.59
2022-09-12T03:50:50.370Z,100385.25
2022-09-12T03:53:19.208Z,100385.47
2022-09-12T03:55:47.570Z,100386.31
2022-09-12T03:58:15.883Z,100389.78
2022-09-12T04:00:44.378Z,100389.97
2022-09-12T04:03:12.727Z,100390.16
2022-09-12T04:05:41.073Z,100395.25
2022-09-12T04:08:09.399Z,100396.09
2022-09-12T04:10:37.766Z,100394.25
2022-09-12T04:13:06.374Z,100395.25
2022-09-12T04:15:34.736Z,100390.75
2022-09-12T04:18:05.982Z,100401.91
2022-09-12T04:20:34.827Z,100407.25
2022-09-12T04:23:03.590Z,100403.91
2022-09-12T04:25:32.386Z,100403.09
2022-09-12T04:28:00.953Z,100409.09
2022-09-12T04:30:29.468Z,100411.78
2022-09-12T04:32:57.893Z,100407.25
2022-09-12T04:35:26.319Z,100412.22
2022-09-12T04:37:54.949Z,100412.59
2022-09-12T04:40:23.467Z,100400.06
2022-09-12T04:42:51.842Z,100402.34
2022-09-12T04:45:20.236Z,100404.44
2022-09-12T04:47:48.603Z,100397.53
2022-09-12T04:50:17.092Z,100397.53
2022-09-12T04:52:45.559Z,100396.69
2022-09-12T04:55:14.210Z,100404.91
2022-09-12T04:57:43.359Z,100407.78
2022-09-12T05:00:14.403Z,100404.06
2022-09-12T05:02:45.737Z,100403.06
2022-09-12T05:05:14.284Z,100402.59
2022-09-12T05:07:42.704Z,100405.50
2022-09-12T05:10:11.898Z,100404.44
2022-09-12T05:12:40.258Z,100416.81
2022-09-12T05:15:09.294Z,100411.47
2022-09-12T05:17:37.242Z,100415.81
2022-09-12T05:20:05.822Z,100424.09
2022-09-12T05:22:34.154Z,100415.50
2022-09-12T05:25:02.500Z,100420.47
2022-09-12T05:27:30.875Z,100411.00
2022-09-12T05:29:59.274Z,100424.16
2022-09-12T05:32:27.629Z,100420.09
2022-09-12T05:34:55.967Z,100421.75
2022-09-12T05:37:24.376Z,100422.84
2022-09-12T05:39:53.334Z,100425.78
2022-09-12T05:42:21.762Z,100428.66
2022-09-12T05:44:50.110Z,100425.69
2022-09-12T05:47:19.283Z,100424.13
2022-09-12T05:49:48.141Z,100426.38
2022-09-12T05:52:16.590Z,100428.59
2022-09-12T05:54:44.940Z,100445.03
2022-09-12T05:57:13.431Z,100442.84
2022-09-12T05:59:41.771Z,100451.25
2022-09-12T06:02:13.202Z,100451.56
2022-09-12T06:04:42.084Z,100450.41
2022-09-12T06:07:10.823Z,100449.44
2022-09-12T06:09:39.282Z,100455.47
2022-09-12T06:12:07.662Z,100448.81
2022-09-12T06:14:36.283Z,100459.75
2022-09-12T06:17:05.159Z,100458.47
2022-09-12T06:19:33.708Z,100459.31
2022-09-12T06:22:02.525Z,100449.19
2022-09-12T06:24:30.976Z,100452.69
2022-09-12T06:26:59.307Z,100459.09
2022-09-12T06:29:27.741Z,100453.31
2022-09-12T06:31:56.062Z,100449.63
2022-09-12T06:34:24.410Z,100449.66
2022-09-12T06:36:52.773Z,100442.63
2022-09-12T06:39:23.539Z,100441.44
2022-09-12T06:41:53.268Z,100454.06
2022-09-12T06:44:23.681Z,100448.41
2022-09-12T06:46:53.702Z,100453.63
2022-09-12T06:49:21.707Z,100456.75
2022-09-12T06:51:50.254Z,100458.03
2022-09-12T06:54:20.020Z,100459.28
2022-09-12T06:56:48.414Z,100464.47
2022-09-12T06:59:16.737Z,100455.38
2022-09-12T07:01:45.272Z,100457.66
2022-09-12T07:04:13.715Z,100460.16
2022-09-12T07:06:44.723Z,100452.69
2022-09-12T07:09:16.370Z,100452.69
2022-09-12T07:11:46.843Z,100452.94
2022-09-12T07:14:15.903Z,100448.38
2022-09-12T07:16:44.444Z,100445.91
2022-09-12T07:19:13.105Z,100458.50
2022-09-12T07:21:41.522Z,100458.72
2022-09-12T07:24:11.290Z,100455.81
2022-09-12T07:26:42.229Z,100460.19
2022-09-12T07:32:06.753Z,100448.44
2022-09-12T07:34:35.721Z,100454.81
2022-09-12T07:37:04.166Z,100453.78
2022-09-12T07:39:32.569Z,100457.09
2022-09-12T07:42:01.958Z,100450.69
2022-09-12T07:44:30.501Z,100450.44
2022-09-12T07:46:58.809Z,100457.91
2022-09-12T07:49:27.168Z,100453.31
2022-09-12T07:51:55.543Z,100446.06
2022-09-12T07:54:24.101Z,100452.91
2022-09-12T07:56:52.637Z,100458.69
2022-09-12T07:59:35.708Z,100454.13
2022-09-12T08:02:17.489Z,100454.94
2022-09-12T08:04:46.057Z,100456.81
2022-09-12T08:07:14.429Z,100458.06
2022-09-12T08:09:42.762Z,100463.84
2022-09-12T08:12:11.427Z,100458.47
2022-09-12T08:14:39.923Z,100459.91
2022-09-12T08:17:08.369Z,100460.31
2022-09-12T08:19:36.741Z,100467.53
2022-09-12T08:22:05.451Z,100464.44
2022-09-12T08:24:33.870Z,100461.34
2022-09-12T08:27:02.189Z,100464.66
2022-09-12T08:29:30.474Z,100465.50
2022-09-12T08:31:58.818Z,100459.25
2022-09-12T08:34:27.232Z,100456.72
2022-09-12T08:36:55.585Z,100457.75
2022-09-12T08:39:24.649Z,100452.13
2022-09-12T08:42:22.977Z,100454.19
2022-09-12T08:44:56.960Z,100450.66
2022-09-12T08:47:36.376Z,100463.84
2022-09-12T08:50:10.340Z,100455.53
2022-09-12T08:53:15.653Z,100453.38
2022-09-12T08:55:45.153Z,100449.41
2022-09-12T08:58:20.217Z,100456.56
2022-09-12T09:01:38.451Z,100451.94
2022-09-12T09:04:28.902Z,100459.31
2022-09-12T09:07:40.577Z,100449.72
2022-09-12T09:10:48.899Z,100450.28
2022-09-12T09:13:51.218Z,100453.81
2022-09-12T09:16:27.638Z,100440.13
2022-09-12T09:18:59.972Z,100444.94
2022-09-12T09:22:04.170Z,100445.41
2022-09-12T09:24:47.975Z,100437.34
2022-09-12T09:27:40.027Z,100444.84
2022-09-12T09:30:19.629Z,100442.34
2022-09-12T09:32:53.637Z,100444.22
2022-09-12T09:35:46.559Z,100437.56
2022-09-12T09:38:35.380Z,100437.31
2022-09-12T09:41:27.107Z,100436.25
2022-09-12T09:43:55.501Z,100438.06
2022-09-12T09:46:23.925Z,100436.34
2022-09-12T09:48:53.026Z,100433.44
2022-09-12T09:51:38.142Z,100436.34
2022-09-12T09:54:40.223Z,100429.34
2022-09-12T09:57:37.055Z,100421.13
2022-09-12T10:00:30.723Z,100422.06
2022-09-12T10:03:03.321Z,100418.78
2022-09-12T10:05:32.189Z,100418.84
2022-09-12T10:08:00.842Z,100417.00
2022-09-12T10:10:29.240Z,100413.91
2022-09-12T10:13:11.430Z,100408.53
2022-09-12T10:15:40.082Z,100408.34
2022-09-12T10:18:08.505Z,100410.75
2022-09-12T10:20:44.640Z,100407.94
2022-09-12T10:23:36.143Z,100407.03
2022-09-12T10:26:10.803Z,100402.34
2022-09-12T10:28:46.157Z,100412.38
2022-09-12T10:31:28.887Z,100403.13
2022-09-12T10:34:01.587Z,100406.19
2022-09-12T10:36:40.919Z,100409.13
2022-09-12T10:39:19.757Z,100405.19
2022-09-12T10:41:48.481Z,100405.66
2022-09-12T10:44:26.161Z,100410.66
2022-09-12T10:46:55.359Z,100400.94
2022-09-12T10:49:38.171Z,100399.47
2022-09-12T10:52:26.016Z,100382.09
2022-09-12T10:54:54.797Z,100384.84
2022-09-12T10:57:50.125Z,100393.25
2022-09-12T11:00:20.610Z,100384.19
2022-09-12T11:03:08.092Z,100378.75
2022-09-12T11:05:39.189Z,100376.53
2022-09-12T11:08:25.610Z,100375.13
2022-09-12T11:11:14.057Z,100377.94
2022-09-12T11:14:04.968Z,100365.78
2022-09-12T11:17:42.023Z,100372.53
2022-09-12T11:20:31.426Z,100366.97
2022-09-12T11:22:59.732Z,100356.03
2022-09-12T11:25:52.450Z,100355.09
2022-09-12T11:28:23.712Z,100360.25
2022-09-12T11:31:46.327Z,100363.66
2022-09-12T11:34:29.151Z,100353.09
2022-09-12T11:37:24.536Z,100354.97
2022-09-12T11:39:55.868Z,100355.19
2022-09-12T11:42:32.101Z,100350.00
2022-09-12T11:45:34.671Z,100349.78
2022-09-12T11:48:12.636Z,100355.19
2022-09-12T11:50:40.999Z,100361.75
2022-09-12T11:53:34.179Z,100344.56
2022-09-12T11:56:18.481Z,100349.41
2022-09-12T11:58:58.590Z,100352.59
2022-09-12T12:01:42.043Z,100345.53
2022-09-12T12:04:19.789Z,100349.06
2022-09-12T12:06:50.156Z,100336.72
2022-09-12T12:09:18.491Z,100343.78
2022-09-12T12:11:56.160Z,100336.38
2022-09-12T12:14:45.490Z,100335.09
2022-09-12T12:17:25.719Z,100340.97
2022-09-12T12:20:08.729Z,100343.47
2022-09-12T12:22:37.223Z,100344.03
2022-09-12T12:25:08.305Z,100337.09
2022-09-12T12:27:45.483Z,100336.84
2022-09-12T12:30:31.939Z,100328.97
2022-09-12T12:33:13.229Z,100327.88
2022-09-12T12:35:46.843Z,100312.72
2022-09-12T12:38:39.336Z,100317.91
2022-09-12T12:41:19.535Z,100321.81
2022-09-12T12:43:53.572Z,100313.69
2022-09-12T12:46:30.076Z,100310.97
2022-09-12T12:49:28.594Z,100321.06
2022-09-12T12:52:01.985Z,100312.25
2022-09-12T12:54:36.616Z,100313.66
2022-09-12T12:57:47.558Z,100311.25
2022-09-12T13:00:21.648Z,100307.34
2022-09-12T13:03:18.931Z,100303.56
2022-09-12T13:05:58.059Z,100302.84
2022-09-12T13:08:34.280Z,100299.88
2022-09-12T13:11:29.611Z,100292.09
2022-09-12T13:14:05.189Z,100296.34
2022-09-12T13:16:53.732Z,100296.03
2022-09-12T13:19:38.015Z,100284.53
2022-09-12T13:22:11.381Z,100281.22
2022-09-12T13:24:52.231Z,100278.94
2022-09-12T13:27:26.443Z,100279.22
2022-09-12T13:30:16.424Z,100275.41
2022-09-12T13:32:45.259Z,100272.47
2022-09-12T13:35:25.476Z,100267.66
2022-09-12T13:38:36.283Z,100260.13
2022-09-12T13:41:25.394Z,100262.59
2022-09-12T13:43:54.121Z,100259.66
2022-09-12T13:46:32.624Z,100252.69
2022-09-12T13:49:07.815Z,100244.31
2022-09-12T13:51:36.377Z,100253.81
2022-09-12T13:54:06.065Z,100257.38
2022-09-12T13:56:34.624Z,100250.88
2022-09-12T13:59:03.953Z,100259.59
2022-09-12T14:01:44.357Z,100250.41
2022-09-12T14:04:50.265Z,100252.97
2022-09-12T14:07:25.219Z,100255.06
2022-09-12T14:09:59.575Z,100251.56
2022-09-12T14:12:34.871Z,100250.41
2022-09-12T14:15:03.341Z,100246.03
2022-09-12T14:17:40.083Z,100242.75
2022-09-12T14:20:16.258Z,100237.84
2022-09-12T14:22:48.207Z,100233.72
2022-09-12T14:25:25.207Z,100235.13
2022-09-12T14:27:56.672Z,100225.75
2022-09-12T14:30:34.350Z,100223.66
2022-09-12T14:33:11.386Z,100217.63
2022-09-12T14:35:44.534Z,100222.16
2022-09-12T14:38:27.144Z,100220.66
2022-09-12T14:41:08.099Z,100217.00
2022-09-12T14:43:39.704Z,100216.84
2022-09-12T14:46:42.711Z,100210.75
2022-09-12T14:49:19.849Z,100211.56
2022-09-12T14:52:00.548Z,100210.44
2022-09-12T14:54:34.915Z,100207.63
2022-09-12T14:57:33.010Z,100207.78
2022-09-12T15:00:13.197Z,100206.31
2022-09-12T15:02:45.065Z,100208.91
2022-09-12T15:05:13.393Z,100209.63
2022-09-12T15:07:41.715Z,100204.66
2022-09-12T15:10:37.019Z,100204.91
2022-09-12T15:13:18.994Z,100199.50
2022-09-12T15:15:50.892Z,100193.75
2022-09-12T15:18:20.756Z,100199.84
2022-09-12T15:20:52.898Z,100198.78
2022-09-12T15:23:30.009Z,100190.28
2022-09-12T15:25:58.413Z,100191.00
2022-09-12T15:28:27.812Z,100201.72
2022-09-12T15:30:57.771Z,100195.06
2022-09-12T15:33:26.690Z,100188.38
2022-09-12T15:35:55.071Z,100203.13
2022-09-12T15:38:26.502Z,100196.53
2022-09-12T15:40:55.875Z,100195.63
2022-09-12T15:43:26.254Z,100190.09
2022-09-12T15:45:54.724Z,100191.06
2022-09-12T15:48:23.133Z,100190.16
2022-09-12T15:50:51.438Z,100181.69
2022-09-12T15:53:19.892Z,100185.56
2022-09-12T15:55:48.293Z,100193.25
2022-09-12T15:58:16.784Z,100184.56
2022-09-12T16:00:45.111Z,100183.38
2022-09-12T16:03:28.224Z,100187.59
2022-09-12T16:06:02.487Z,100188.31
2022-09-12T16:08:32.993Z,100179.03
2022-09-12T16:11:06.397Z,100178.69
2022-09-12T16:13:35.423Z,100176.44
2022-09-12T16:16:04.635Z,100172.34
2022-09-12T16:18:33.207Z,100167.16
2022-09-12T16:21:01.818Z,100169.03
2022-09-12T16:23:31.191Z,100168.22
2022-09-12T16:26:02.178Z,100170.91
2022-09-12T16:28:32.688Z,100162.81
2022-09-12T16:31:06.449Z,100159.06
2022-09-12T16:33:35.647Z,100163.41
2022-09-12T16:36:11.143Z,100159.06
2022-09-12T16:38:54.280Z,100142.25
2022-09-12T16:41:26.435Z,100149.75
2022-09-12T16:43:55.228Z,100147.53
2022-09-12T16:46:28.679Z,100140.94
2022-09-12T16:48:59.216Z,100135.09
2022-09-12T16:51:37.537Z,100132.03
2022-09-12T16:54:06.269Z,100132.41
2022-09-12T16:56:34.758Z,100124.63
2022-09-12T16:59:04.287Z,100125.47
2022-09-12T17:01:33.713Z,100126.19
2022-09-12T17:04:03.025Z,100125.00
2022-09-12T17:06:31.852Z,100124.03
2022-09-12T17:09:03.126Z,100120.97
2022-09-12T17:11:36.689Z,100123.88
2022-09-12T17:14:08.267Z,100124.34
2022-09-12T17:16:39.842Z,100116.03
2022-09-12T17:19:09.724Z,100117.72
2022-09-12T17:21:38.271Z,100115.00
2022-09-12T17:24:06.962Z,100124.16
2022-09-12T17:26:35.507Z,100112.19
2022-09-12T17:29:04.595Z,100122.38
2022-09-12T17:31:33.434Z,100124.03
2022-09-12T17:34:03.397Z,100118.41
2022-09-12T17:36:34.536Z,100115.25
2022-09-12T17:39:05.763Z,100124.16
2022-09-12T17:41:34.747Z,100110.75
2022-09-12T17:44:03.808Z,100111.47
2022-09-12T17:46:40.264Z,100108.28
2022-09-12T17:49:16.698Z,100118.16
2022-09-12T17:51:45.543Z,100116.13
2022-09-12T17:54:17.982Z,100107.94
2022-09-12T17:56:50.191Z,100112.25
2022-09-12T17:59:24.088Z,100109.41
2022-09-12T18:02:10.408Z,100109.50
2022-09-12T18:04:39.028Z,100112.66
2022-09-12T18:07:07.705Z,100102.59
2022-09-12T18:09:37.621Z,100110.53
2022-09-12T18:12:07.002Z,100106.53
2022-09-12T18:14:38.642Z,100108.75
2022-09-12T18:17:08.703Z,100104.94
2022-09-12T18:19:37.536Z,100105.47
2022-09-12T18:22:07.197Z,100107.03
2022-09-12T18:24:36.098Z,100106.56
2022-09-12T18:27:04.728Z,100105.72
2022-09-12T18:29:33.168Z,100111.94
2022-09-12T18:32:02.174Z,100116.34
2022-09-12T18:34:30.784Z,100111.66
2022-09-12T18:36:59.411Z,100114.81
2022-09-12T18:39:28.159Z,100109.63
2022-09-12T18:41:56.795Z,100114.81
2022-09-12T18:44:29.341Z,100109.78
2022-09-12T18:46:57.776Z,100109.16
2022-09-12T18:49:26.247Z,100103.19
2022-09-12T18:51:54.822Z,100109.88
2022-09-12T18:54:23.435Z,100111.16
2022-09-12T18:56:51.815Z,100113.00
2022-09-12T18:59:20.544Z,100113.91
2022-09-12T19:01:50.285Z,100114.13
2022-09-12T19:04:19.377Z,100112.41
2022-09-12T19:06:50.563Z,100105.22
2022-09-12T19:09:23.823Z,100100.13
2022-09-12T19:11:54.663Z,100095.88
2022-09-12T19:14:25.079Z,100103.56
2022-09-12T19:16:53.994Z,100104.00
2022-09-12T19:19:25.573Z,100097.78
2022-09-12T19:21:54.082Z,100095.94
2022-09-12T19:24:25.068Z,100089.09
2022-09-12T19:26:53.626Z,100094.47
2022-09-12T19:29:22.093Z,100093.31
2022-09-12T19:31:50.705Z,100083.53
2022-09-12T19:34:19.278Z,100096.69
2022-09-12T19:36:48.164Z,100089.44
2022-09-12T19:39:19.833Z,100076.78
2022-09-12T19:41:49.307Z,100085.53
2022-09-12T19:44:19.352Z,100090.38
2022-09-12T19:46:47.926Z,100083.00
2022-09-12T19:49:16.582Z,100082.03
2022-09-12T19:51:46.663Z,100080.22
2022-09-12T19:54:15.248Z,100091.03
2022-09-12T19:56:43.759Z,100082.19
2022-09-12T19:59:12.501Z,100081.22
2022-09-12T20:01:41.308Z,100073.78
2022-09-12T20:04:10.182Z,100077.34
2022-09-12T20:06:39.070Z,100072.63
2022-09-12T20:09:07.829Z,100075.75
2022-09-12T20:11:36.856Z,100070.78
2022-09-12T20:14:05.314Z,100076.03
2022-09-12T20:16:33.936Z,100073.97
2022-09-12T20:19:08.721Z,100077.91
2022-09-12T20:21:37.927Z,100072.94
2022-09-12T20:24:09.427Z,100075.84
2022-09-12T22:16:33.882Z,99968.72
2022-09-12T22:19:02.365Z,99962.56
2022-09-12T22:21:30.750Z,99963.34
2022-09-12T22:24:16.442Z,99962.75
2022-09-12T22:26:47.333Z,99959.47
2022-09-12T22:29:15.664Z,99950.00
2022-09-12T22:31:44.265Z,99952.03
2022-09-12T22:34:12.624Z,99953.31
2022-09-12T22:36:41.335Z,99942.56
2022-09-12T22:39:09.814Z,99945.03
2022-09-12T22:41:38.268Z,99942.56
2022-09-12T22:44:06.728Z,99944.84
2022-09-12T22:46:35.348Z,99942.59
2022-09-12T22:49:04.895Z,99942.78
2022-09-12T22:51:33.657Z,99936.81
2022-09-12T22:54:02.057Z,99934.34
2022-09-12T22:56:30.509Z,99923.59
2022-09-12T22:58:59.290Z,99921.97
2022-09-12T23:01:27.689Z,99921.97
2022-09-12T23:03:56.209Z,99914.13
2022-09-12T23:06:24.601Z,99917.88
2022-09-12T23:08:53.288Z,99919.09
2022-09-12T23:11:22.174Z,99919.72
2022-09-12T23:13:52.517Z,99915.59
2022-09-12T23:16:24.888Z,99922.44
2022-09-12T23:18:53.690Z,99916.66
2022-09-12T23:21:22.799Z,99918.72
2022-09-12T23:23:51.617Z,99918.72
2022-09-12T23:26:23.308Z,99919.78
2022-09-12T23:29:00.115Z,99921.38
2022-09-12T23:31:31.572Z,99909.03
2022-09-12T23:34:03.264Z,99907.97
2022-09-12T23:36:32.222Z,99907.19
2022-09-12T23:39:00.521Z,99911.50
2022-09-12T23:41:31.463Z,99905.91
2022-09-12T23:44:00.064Z,99897.63
2022-09-12T23:46:28.636Z,99898.28
2022-09-12T23:48:56.889Z,99886.47
2022-09-12T23:51:25.293Z,99892.66
2022-09-12T23:53:53.607Z,99889.16
2022-09-12T23:56:23.030Z,99890.00
2022-09-12T23:58:51.590Z,99884.41
